Time,TemperatureF,DewpointF,PressureIn,WindDirection,WindDirectionDegrees,WindSpeedMPH,WindSpeedGustMPH,Humidity,HourlyPrecipIn,Conditions,Clouds,dailyrainin,SolarRadiationWatts/m^2,SoftwareType,DateUTC
2013-03-01 00:02:00,40.0,33.0,-100.00,West,269,5.0,9.0,76,0.00,,,0.00,0.000000,,2013-03-01 06:02:00,
2013-03-01 00:32:00,39.0,31.0,-100.00,West,269,3.0,9.0,74,0.00,,,0.00,0.000000,,2013-03-01 06:32:00,
2013-03-01 00:42:00,39.0,31.0,-100.00,West,269,3.0,9.0,74,0.00,,,0.00,0.000000,,2013-03-01 06:42:00,
2013-03-01 00:53:00,39.0,31.0,-100.00,West,269,3.0,9.0,74,0.00,,,0.00,0.000000,,2013-03-01 06:53:00,
2013-03-01 01:02:00,39.0,31.0,-100.00,West,269,3.0,9.0,74,0.00,,,0.00,0.000000,,2013-03-01 07:02:00,
2013-03-01 01:32:00,38.0,31.0,-100.00,WNW,282,5.0,7.0,75,0.00,,,0.00,0.000000,,2013-03-01 07:32:00,
2013-03-01 01:42:00,38.0,31.0,-100.00,WNW,282,5.0,7.0,75,0.00,,,0.00,0.000000,,2013-03-01 07:42:00,
2013-03-01 01:52:00,38.0,31.0,-100.00,WNW,282,5.0,7.0,75,0.00,,,0.00,0.000000,,2013-03-01 07:52:00,
2013-03-01 02:02:00,38.0,31.0,-100.00,WNW,282,5.0,7.0,75,0.00,,,0.00,0.000000,,2013-03-01 08:02:00,
2013-03-01 02:33:00,37.0,31.0,-100.00,WNW,284,6.0,10.0,80,0.00,,,0.00,0.000000,,2013-03-01 08:33:00,
2013-03-01 02:43:00,37.0,31.0,-100.00,WNW,284,6.0,10.0,80,0.00,,,0.00,0.000000,,2013-03-01 08:43:00,
2013-03-01 02:53:00,37.0,31.0,-100.00,WNW,284,6.0,10.0,80,0.00,,,0.00,0.000000,,2013-03-01 08:53:00,
2013-03-01 03:02:00,37.0,31.0,-100.00,WNW,284,6.0,10.0,80,0.00,,,0.00,0.000000,,2013-03-01 09:02:00,
2013-03-01 03:32:00,37.0,31.0,-100.00,WNW,284,6.0,11.0,79,0.00,,,0.00,0.000000,,2013-03-01 09:32:00,
2013-03-01 03:42:00,37.0,31.0,-100.00,WNW,284,6.0,11.0,79,0.00,,,0.00,0.000000,,2013-03-01 09:42:00,
2013-03-01 03:52:00,37.0,31.0,-100.00,WNW,284,6.0,11.0,79,0.00,,,0.00,0.000000,,2013-03-01 09:52:00,
2013-03-01 04:02:00,37.0,31.0,-100.00,WNW,284,6.0,11.0,79,0.00,,,0.00,0.000000,,2013-03-01 10:02:00,
2013-03-01 04:32:00,36.0,30.0,-100.00,West,275,5.0,10.0,80,0.00,,,0.00,0.000000,,2013-03-01 10:32:00,
2013-03-01 04:42:00,36.0,30.0,-100.00,West,275,5.0,10.0,80,0.00,,,0.00,0.000000,,2013-03-01 10:42:00,
2013-03-01 04:53:00,36.0,30.0,-100.00,West,275,5.0,10.0,80,0.00,,,0.00,0.000000,,2013-03-01 10:53:00,
2013-03-01 05:01:00,36.0,30.0,-100.00,West,275,5.0,10.0,80,0.00,,,0.00,0.000000,,2013-03-01 11:01:00,
2013-03-01 05:32:00,36.0,31.0,-100.00,WNW,285,5.0,9.0,83,0.00,,,0.00,0.000000,,2013-03-01 11:32:00,
2013-03-01 05:42:00,36.0,31.0,-100.00,WNW,285,5.0,9.0,83,0.00,,,0.00,0.000000,,2013-03-01 11:42:00,
2013-03-01 05:52:00,36.0,31.0,-100.00,WNW,285,5.0,9.0,83,0.00,,,0.00,0.000000,,2013-03-01 11:52:00,
2013-03-01 06:01:00,36.0,31.0,-100.00,WNW,285,5.0,9.0,83,0.00,,,0.00,0.000000,,2013-03-01 12:01:00,
2013-03-01 06:32:00,35.0,30.0,-100.00,West,281,6.0,9.0,82,0.00,,,0.00,0.000000,,2013-03-01 12:32:00,
2013-03-01 06:42:00,35.0,30.0,-100.00,West,281,6.0,9.0,82,0.00,,,0.00,0.000000,,2013-03-01 12:42:00,
2013-03-01 06:52:00,35.0,30.0,-100.00,West,281,6.0,9.0,82,0.00,,,0.00,0.000000,,2013-03-01 12:52:00,
2013-03-01 07:01:00,35.0,30.0,-100.00,West,281,6.0,9.0,82,0.00,,,0.00,0.000000,,2013-03-01 13:01:00,
2013-03-01 07:32:00,35.0,30.0,-100.00,WNW,287,5.0,11.0,83,0.00,,,0.00,3.000000,,2013-03-01 13:32:00,
2013-03-01 07:42:00,35.0,30.0,-100.00,WNW,287,5.0,11.0,83,0.00,,,0.00,3.000000,,2013-03-01 13:42:00,
2013-03-01 07:52:00,35.0,30.0,-100.00,WNW,287,5.0,11.0,83,0.00,,,0.00,3.000000,,2013-03-01 13:52:00,
2013-03-01 08:01:00,35.0,30.0,-100.00,WNW,287,5.0,11.0,83,0.00,,,0.00,3.000000,,2013-03-01 14:01:00,
2013-03-01 08:32:00,38.0,33.0,-100.00,WNW,293,5.0,10.0,83,0.00,,,0.00,39.000000,,2013-03-01 14:32:00,
2013-03-01 08:42:00,38.0,33.0,-100.00,WNW,293,5.0,10.0,83,0.00,,,0.00,39.000000,,2013-03-01 14:42:00,
2013-03-01 08:52:00,38.0,33.0,-100.00,WNW,293,5.0,10.0,83,0.00,,,0.00,39.000000,,2013-03-01 14:52:00,
2013-03-01 09:01:00,38.0,33.0,-100.00,WNW,293,5.0,10.0,83,0.00,,,0.00,39.000000,,2013-03-01 15:01:00,
2013-03-01 09:32:00,45.0,34.0,-100.00,NNW,337,6.0,13.0,64,0.00,,,0.00,68.000000,,2013-03-01 15:32:00,
2013-03-01 09:42:00,45.0,34.0,-100.00,NNW,337,6.0,13.0,64,0.00,,,0.00,68.000000,,2013-03-01 15:42:00,
2013-03-01 09:52:00,45.0,34.0,-100.00,NNW,337,6.0,13.0,64,0.00,,,0.00,68.000000,,2013-03-01 15:52:00,
2013-03-01 10:01:00,45.0,34.0,-100.00,NNW,337,6.0,13.0,64,0.00,,,0.00,68.000000,,2013-03-01 16:01:00,
2013-03-01 10:32:00,52.0,35.0,-100.00,NW,306,8.0,13.0,52,0.00,,,0.00,459.000000,,2013-03-01 16:32:00,
2013-03-01 10:42:00,52.0,35.0,-100.00,NW,306,8.0,13.0,52,0.00,,,0.00,459.000000,,2013-03-01 16:42:00,
2013-03-01 10:52:00,52.0,35.0,-100.00,NW,306,8.0,13.0,52,0.00,,,0.00,459.000000,,2013-03-01 16:52:00,
2013-03-01 11:01:00,52.0,35.0,-100.00,NW,306,8.0,13.0,52,0.00,,,0.00,459.000000,,2013-03-01 17:01:00,
2013-03-01 11:32:00,56.0,31.0,-100.00,WNW,299,9.0,19.0,39,0.00,,,0.00,494.000000,,2013-03-01 17:32:00,
2013-03-01 11:42:00,56.0,31.0,-100.00,WNW,299,9.0,19.0,39,0.00,,,0.00,494.000000,,2013-03-01 17:42:00,
2013-03-01 11:52:00,56.0,31.0,-100.00,WNW,299,9.0,19.0,39,0.00,,,0.00,494.000000,,2013-03-01 17:52:00,
2013-03-01 12:01:00,56.0,31.0,-100.00,WNW,299,9.0,19.0,39,0.00,,,0.00,494.000000,,2013-03-01 18:01:00,
2013-03-01 12:32:00,60.0,26.0,-100.00,NW,314,10.0,21.0,27,0.00,,,0.00,798.000000,,2013-03-01 18:32:00,
2013-03-01 12:42:00,60.0,26.0,-100.00,NW,314,10.0,21.0,27,0.00,,,0.00,798.000000,,2013-03-01 18:42:00,
2013-03-01 12:52:00,60.0,26.0,-100.00,NW,314,10.0,21.0,27,0.00,,,0.00,798.000000,,2013-03-01 18:52:00,
2013-03-01 13:01:00,60.0,26.0,-100.00,NW,314,10.0,21.0,27,0.00,,,0.00,798.000000,,2013-03-01 19:01:00,
2013-03-01 13:32:00,60.0,25.0,-100.00,NW,318,10.0,23.0,26,0.00,,,0.00,638.000000,,2013-03-01 19:32:00,
2013-03-01 13:42:00,60.0,25.0,-100.00,NW,318,10.0,23.0,26,0.00,,,0.00,638.000000,,2013-03-01 19:42:00,
2013-03-01 13:52:00,60.0,25.0,-100.00,NW,318,10.0,23.0,26,0.00,,,0.00,638.000000,,2013-03-01 19:52:00,
2013-03-01 14:01:00,60.0,25.0,-100.00,NW,318,10.0,23.0,26,0.00,,,0.00,638.000000,,2013-03-01 20:01:00,
2013-03-01 14:32:00,63.0,27.0,-100.00,NW,323,7.0,19.0,25,0.00,,,0.00,787.000000,,2013-03-01 20:32:00,
2013-03-01 14:42:00,63.0,27.0,-100.00,NW,323,7.0,19.0,25,0.00,,,0.00,787.000000,,2013-03-01 20:42:00,
2013-03-01 14:52:00,63.0,27.0,-100.00,NW,323,7.0,19.0,25,0.00,,,0.00,787.000000,,2013-03-01 20:52:00,
2013-03-01 15:01:00,63.0,27.0,-100.00,NW,323,7.0,19.0,25,0.00,,,0.00,787.000000,,2013-03-01 21:01:00,
2013-03-01 15:32:00,64.0,28.0,-100.00,NW,317,8.0,15.0,26,0.00,,,0.00,649.000000,,2013-03-01 21:32:00,
2013-03-01 15:42:00,64.0,28.0,-100.00,NW,317,8.0,15.0,26,0.00,,,0.00,649.000000,,2013-03-01 21:42:00,
2013-03-01 15:52:00,64.0,28.0,-100.00,NW,317,8.0,15.0,26,0.00,,,0.00,649.000000,,2013-03-01 21:52:00,
2013-03-01 16:01:00,64.0,28.0,-100.00,NW,317,8.0,15.0,26,0.00,,,0.00,649.000000,,2013-03-01 22:01:00,
2013-03-01 16:32:00,63.0,28.0,-100.00,NW,309,7.0,17.0,26,0.00,,,0.00,405.000000,,2013-03-01 22:32:00,
2013-03-01 16:42:00,63.0,28.0,-100.00,NW,309,7.0,17.0,26,0.00,,,0.00,405.000000,,2013-03-01 22:42:00,
2013-03-01 16:52:00,63.0,28.0,-100.00,NW,309,7.0,17.0,26,0.00,,,0.00,405.000000,,2013-03-01 22:52:00,
2013-03-01 17:01:00,63.0,28.0,-100.00,NW,309,7.0,17.0,26,0.00,,,0.00,405.000000,,2013-03-01 23:01:00,
2013-03-01 17:32:00,59.0,24.0,-100.00,NW,318,7.0,16.0,26,0.00,,,0.00,242.000000,,2013-03-01 23:32:00,
2013-03-01 17:42:00,59.0,24.0,-100.00,NW,318,7.0,16.0,26,0.00,,,0.00,242.000000,,2013-03-01 23:42:00,
2013-03-01 17:52:00,59.0,24.0,-100.00,NW,318,7.0,16.0,26,0.00,,,0.00,242.000000,,2013-03-01 23:52:00,
2013-03-01 18:02:00,59.0,24.0,-100.00,NW,318,7.0,16.0,26,0.00,,,0.00,242.000000,,2013-03-02 00:02:00,
2013-03-01 18:32:00,54.0,29.0,-100.00,NW,310,4.0,12.0,38,0.00,,,0.00,35.000000,,2013-03-02 00:32:00,
2013-03-01 18:42:00,54.0,29.0,-100.00,NW,310,4.0,12.0,38,0.00,,,0.00,35.000000,,2013-03-02 00:42:00,
2013-03-01 18:52:00,54.0,29.0,-100.00,NW,310,4.0,12.0,38,0.00,,,0.00,35.000000,,2013-03-02 00:52:00,
2013-03-01 19:01:00,54.0,29.0,-100.00,NW,310,4.0,12.0,38,0.00,,,0.00,35.000000,,2013-03-02 01:01:00,
2013-03-01 19:32:00,50.0,29.0,-100.00,NW,305,4.0,10.0,45,0.00,,,0.00,1.000000,,2013-03-02 01:32:00,
2013-03-01 19:42:00,50.0,29.0,-100.00,NW,305,4.0,10.0,45,0.00,,,0.00,1.000000,,2013-03-02 01:42:00,
2013-03-01 19:52:00,50.0,29.0,-100.00,NW,305,4.0,10.0,45,0.00,,,0.00,1.000000,,2013-03-02 01:52:00,
2013-03-01 20:01:00,50.0,29.0,-100.00,NW,305,4.0,10.0,45,0.00,,,0.00,1.000000,,2013-03-02 02:01:00,
2013-03-01 20:32:00,48.0,29.0,-100.00,WNW,291,5.0,8.0,48,0.00,,,0.00,0.000000,,2013-03-02 02:32:00,
2013-03-01 20:42:00,48.0,29.0,-100.00,WNW,291,5.0,8.0,48,0.00,,,0.00,0.000000,,2013-03-02 02:42:00,
2013-03-01 20:52:00,48.0,29.0,-100.00,WNW,291,5.0,8.0,48,0.00,,,0.00,0.000000,,2013-03-02 02:52:00,
2013-03-01 21:02:00,48.0,29.0,-100.00,WNW,291,5.0,8.0,48,0.00,,,0.00,0.000000,,2013-03-02 03:02:00,
2013-03-01 21:32:00,46.0,29.0,-100.00,NW,314,5.0,9.0,52,0.00,,,0.00,0.000000,,2013-03-02 03:32:00,
2013-03-01 21:42:00,46.0,29.0,-100.00,NW,314,5.0,9.0,52,0.00,,,0.00,0.000000,,2013-03-02 03:42:00,
2013-03-01 21:52:00,46.0,29.0,-100.00,NW,314,5.0,9.0,52,0.00,,,0.00,0.000000,,2013-03-02 03:52:00,
2013-03-01 22:01:00,46.0,29.0,-100.00,NW,314,5.0,9.0,52,0.00,,,0.00,0.000000,,2013-03-02 04:01:00,
2013-03-01 22:32:00,43.0,29.0,-100.00,NW,312,3.0,8.0,57,0.00,,,0.00,0.000000,,2013-03-02 04:32:00,
2013-03-01 22:42:00,43.0,29.0,-100.00,NW,312,3.0,8.0,57,0.00,,,0.00,0.000000,,2013-03-02 04:42:00,
2013-03-01 22:52:00,43.0,29.0,-100.00,NW,312,3.0,8.0,57,0.00,,,0.00,0.000000,,2013-03-02 04:52:00,
2013-03-01 23:02:00,43.0,29.0,-100.00,NW,312,3.0,8.0,57,0.00,,,0.00,0.000000,,2013-03-02 05:02:00,
2013-03-01 23:32:00,41.0,29.0,-100.00,WNW,299,4.0,6.0,63,0.00,,,0.00,0.000000,,2013-03-02 05:32:00,
2013-03-01 23:42:00,41.0,29.0,-100.00,WNW,299,4.0,6.0,63,0.00,,,0.00,0.000000,,2013-03-02 05:42:00,
2013-03-01 23:52:00,41.0,29.0,-100.00,WNW,299,4.0,6.0,63,0.00,,,0.00,0.000000,,2013-03-02 05:52:00,